Time,TemperatureF,DewpointF,PressureIn,WindDirection,WindDirectionDegrees,WindSpeedMPH,WindSpeedGustMPH,Humidity,HourlyPrecipIn,Conditions,Clouds,dailyrainin,SoftwareType,DateUTC
2013-06-17 00:04:00,71.8,46.8,29.97,NNE,23,0.0,0.0,41,0.00,,,0.00,WUHU216HW,2013-06-17 07:04:00,
2013-06-17 00:34:00,71.5,47.1,29.98,North,0,0.0,0.0,42,0.00,,,0.00,WUHU216HW,2013-06-17 07:34:00,
2013-06-17 01:04:00,71.1,48.0,29.97,NNW,338,0.7,0.7,44,0.00,,,0.00,WUHU216HW,2013-06-17 08:04:00,
2013-06-17 01:34:00,70.2,46.5,29.97,NNW,338,0.4,0.4,43,0.00,,,0.00,WUHU216HW,2013-06-17 08:34:00,
2013-06-17 02:04:00,68.9,46.0,29.97,NW,315,0.9,0.9,44,0.00,,,0.00,WUHU216HW,2013-06-17 09:04:00,
2013-06-17 02:34:00,67.0,46.0,29.97,North,0,0.0,0.0,47,0.00,,,0.00,WUHU216HW,2013-06-17 09:34:00,
2013-06-17 03:04:00,65.0,45.9,29.97,North,0,0.0,0.0,50,0.00,,,0.00,WUHU216HW,2013-06-17 10:04:00,
2013-06-17 03:34:00,63.4,46.4,29.97,North,0,0.0,0.0,54,0.00,,,0.00,WUHU216HW,2013-06-17 10:34:00,
2013-06-17 04:04:00,61.9,46.5,29.97,North,0,0.0,0.0,57,0.00,,,0.00,WUHU216HW,2013-06-17 11:04:00,
2013-06-17 04:09:00,61.9,46.5,29.97,NE,45,0.0,0.0,57,0.00,,,0.00,WUHU216HW,2013-06-17 11:09:00,
2013-06-17 04:34:00,61.0,46.2,29.97,North,0,0.0,0.0,58,0.00,,,0.00,WUHU216HW,2013-06-17 11:34:00,
2013-06-17 05:04:00,60.1,46.3,29.98,North,0,0.0,0.0,60,0.00,,,0.00,WUHU216HW,2013-06-17 12:04:00,
2013-06-17 05:34:00,59.6,46.2,29.99,SE,135,0.0,0.0,61,0.00,,,0.00,WUHU216HW,2013-06-17 12:34:00,
2013-06-17 06:04:00,58.7,45.7,30.00,North,0,0.0,0.0,62,0.00,,,0.00,WUHU216HW,2013-06-17 13:04:00,
2013-06-17 06:34:00,59.9,46.9,30.01,North,0,0.0,0.0,62,0.00,,,0.00,WUHU216HW,2013-06-17 13:34:00,
2013-06-17 07:04:00,62.1,48.2,30.02,SE,135,0.2,0.2,60,0.00,,,0.00,WUHU216HW,2013-06-17 14:04:00,
2013-06-17 07:09:00,62.1,48.2,30.02,SE,135,0.2,0.2,60,0.00,,,0.00,WUHU216HW,2013-06-17 14:09:00,
2013-06-17 07:34:00,64.6,48.0,30.03,SE,135,1.8,1.8,55,0.00,,,0.00,WUHU216HW,2013-06-17 14:34:00,
2013-06-17 08:04:00,67.0,46.6,30.03,ESE,121,2.7,3.4,48,0.00,,,0.00,WUHU216HW,2013-06-17 15:04:00,
2013-06-17 08:09:00,67.0,46.6,30.03,SE,135,2.0,3.4,48,0.00,,,0.00,WUHU216HW,2013-06-17 15:09:00,
2013-06-17 08:34:00,69.3,47.0,30.03,East,90,2.5,2.5,45,0.00,,,0.00,WUHU216HW,2013-06-17 15:34:00,
2013-06-17 09:04:00,71.5,46.5,30.03,WSW,248,3.4,3.4,41,0.00,,,0.00,WUHU216HW,2013-06-17 16:04:00,
2013-06-17 09:34:00,73.8,47.3,30.02,SSW,203,4.0,4.0,39,0.00,,,0.00,WUHU216HW,2013-06-17 16:34:00,
2013-06-17 10:04:00,76.0,48.4,30.01,SE,135,3.4,3.4,38,0.00,,,0.00,WUHU216HW,2013-06-17 17:04:00,
2013-06-17 10:34:00,78.3,49.8,30.02,SSE,158,3.8,3.8,37,0.00,,,0.00,WUHU216HW,2013-06-17 17:34:00,
2013-06-17 11:04:00,79.6,50.9,30.02,SSE,158,3.8,3.8,37,0.00,,,0.00,WUHU216HW,2013-06-17 18:04:00,
2013-06-17 11:34:00,81.9,51.4,30.01,ESE,113,3.4,3.4,35,0.00,,,0.00,WUHU216HW,2013-06-17 18:34:00,
2013-06-17 12:04:00,83.5,51.2,30.01,SW,225,2.5,2.5,33,0.00,,,0.00,WUHU216HW,2013-06-17 19:04:00,
2013-06-17 12:34:00,84.2,52.7,30.00,SW,225,1.8,1.8,34,0.00,,,0.00,WUHU216HW,2013-06-17 19:34:00,
2013-06-17 13:04:00,86.6,53.2,29.99,ESE,113,1.6,1.6,32,0.00,,,0.00,WUHU216HW,2013-06-17 20:04:00,
2013-06-17 13:34:00,88.2,52.9,29.98,NNW,338,0.4,0.4,30,0.00,,,0.00,WUHU216HW,2013-06-17 20:34:00,
2013-06-17 14:04:00,89.3,53.8,29.97,SW,225,2.2,2.2,30,0.00,,,0.00,WUHU216HW,2013-06-17 21:04:00,
2013-06-17 14:34:00,90.4,54.8,29.96,West,270,0.9,0.9,30,0.00,,,0.00,WUHU216HW,2013-06-17 21:34:00,
2013-06-17 15:04:00,91.4,52.5,29.95,SW,225,3.4,3.4,27,0.00,,,0.00,WUHU216HW,2013-06-17 22:04:00,
2013-06-17 15:34:00,92.0,52.9,29.94,SE,135,1.8,1.8,27,0.00,,,0.00,WUHU216HW,2013-06-17 22:34:00,
2013-06-17 16:04:00,92.3,52.1,29.92,WNW,293,4.3,4.3,26,0.00,,,0.00,WUHU216HW,2013-06-17 23:04:00,
2013-06-17 16:34:00,92.5,52.3,29.91,West,270,6.5,6.5,26,0.00,,,0.00,WUHU216HW,2013-06-17 23:34:00,
2013-06-17 17:04:00,92.5,51.2,29.90,NW,315,3.6,3.6,25,0.00,,,0.00,WUHU216HW,2013-06-18 00:04:00,
2013-06-17 17:34:00,92.2,50.9,29.90,NW,315,2.5,2.5,25,0.00,,,0.00,WUHU216HW,2013-06-18 00:34:00,
2013-06-17 18:04:00,92.2,50.9,29.89,WNW,293,3.4,3.4,25,0.00,,,0.00,WUHU216HW,2013-06-18 01:04:00,
2013-06-17 18:34:00,91.1,46.7,29.88,West,270,6.0,6.0,22,0.00,,,0.00,WUHU216HW,2013-06-18 01:34:00,
2013-06-17 19:04:00,90.2,46.0,29.88,NNW,327,4.4,4.5,22,0.00,,,0.00,WUHU216HW,2013-06-18 02:04:00,
2013-06-17 19:09:00,90.2,46.0,29.88,NW,315,4.3,4.5,22,0.00,,,0.00,WUHU216HW,2013-06-18 02:09:00,
2013-06-17 19:34:00,88.7,45.9,29.88,NW,315,3.4,3.4,23,0.00,,,0.00,WUHU216HW,2013-06-18 02:34:00,
2013-06-17 20:04:00,86.9,45.5,29.89,NW,315,2.0,2.0,24,0.00,,,0.00,WUHU216HW,2013-06-18 03:04:00,
2013-06-17 20:34:00,84.2,44.2,29.89,NNW,338,0.7,0.7,25,0.00,,,0.00,WUHU216HW,2013-06-18 03:34:00,
2013-06-17 21:04:00,80.3,45.1,29.90,North,0,0.4,0.4,29,0.00,,,0.00,WUHU216HW,2013-06-18 04:04:00,
2013-06-17 21:34:00,79.6,48.6,29.91,NNW,338,2.0,2.0,34,0.00,,,0.00,WUHU216HW,2013-06-18 04:34:00,
2013-06-17 22:04:00,78.3,49.8,29.92,NNW,338,1.8,1.8,37,0.00,,,0.00,WUHU216HW,2013-06-18 05:04:00,
2013-06-17 22:34:00,76.1,49.4,29.92,NW,315,0.7,0.7,39,0.00,,,0.00,WUHU216HW,2013-06-18 05:34:00,
2013-06-17 23:04:00,75.4,50.1,29.92,NW,315,4.9,4.9,41,0.00,,,0.00,WUHU216HW,2013-06-18 06:04:00,
2013-06-17 23:34:00,74.5,50.5,29.92,NW,315,2.9,2.9,43,0.00,,,0.00,WUHU216HW,2013-06-18 06:34:00,